IN85 weather

Bowlin Airport
Huntington, Indiana, United States

Public forecast

Using degrees Fahrenheit for public forecast. Weather courtesy of forecast.io.

Closest aviation weather report (METAR) to Bowlin Airport

Closest report is Huntington Municipal Airport, 1.5 nm (2.8 km) NE. Retrieved 2020/02/21 21:55 UTC (27 minutes ago):

KHHG 212155Z AUTO 21010KT 10SM 01/M13 A3047 RMK AO2 T00051132

Closest aviation forecast (TAF) to Bowlin Airport

Closest forecast is Fort Wayne International Airport, 15.6 nm (28.9 km) ENE. Retrieved 2020/02/21 18:36 UTC (4 hours ago):

TAF KFWA 211733Z 2118/2218 23011G19KT P6SM SKC FM220500 23010KT P6SM SKC WS015/25040KT FM221000 24010KT P6SM SKC